createdAt,value
2022-12-04T00:02:33.680Z,34.40
2022-12-04T00:05:20.805Z,33.03
2022-12-04T00:08:09.440Z,33.58
2022-12-04T00:10:56.513Z,33.50
2022-12-04T00:13:44.313Z,32.67
2022-12-04T00:16:31.543Z,33.42
2022-12-04T00:19:18.751Z,32.30
2022-12-04T00:22:06.095Z,32.58
2022-12-04T00:24:54.402Z,30.40
2022-12-04T00:27:41.337Z,34.15
2022-12-04T00:30:28.616Z,33.38
2022-12-04T00:33:15.670Z,29.45
2022-12-04T00:36:05.352Z,29.65
2022-12-04T00:38:52.686Z,32.88
2022-12-04T00:41:41.633Z,31.27
2022-12-04T00:44:28.835Z,32.67
2022-12-04T00:47:15.892Z,30.10
2022-12-04T00:50:02.939Z,34.53
2022-12-04T00:52:49.672Z,30.60
2022-12-04T00:55:39.244Z,30.10
2022-12-04T00:58:27.796Z,29.73
2022-12-04T01:01:16.985Z,31.55
2022-12-04T01:04:04.137Z,31.95
2022-12-04T01:06:51.087Z,34.03
2022-12-04T01:09:38.500Z,29.52
2022-12-04T01:12:25.570Z,32.97
2022-12-04T01:15:14.130Z,31.05
2022-12-04T01:18:01.221Z,31.00
2022-12-04T01:20:50.789Z,30.20
2022-12-04T01:23:38.090Z,31.17
2022-12-04T01:26:25.350Z,31.20
2022-12-04T01:29:12.405Z,32.22
2022-12-04T01:32:00.928Z,29.95
2022-12-04T01:34:47.895Z,27.25
2022-12-04T01:37:35.064Z,30.02
2022-12-04T01:40:22.071Z,31.30
2022-12-04T01:43:13.530Z,29.70
2022-12-04T01:46:01.779Z,34.63
2022-12-04T01:48:54.502Z,31.27
2022-12-04T01:51:43.964Z,32.22
2022-12-04T01:54:34.018Z,29.90
2022-12-04T01:57:23.546Z,30.73
2022-12-04T02:00:13.432Z,30.23
2022-12-04T02:03:00.630Z,26.95
2022-12-04T02:05:48.867Z,29.05
2022-12-04T02:08:37.338Z,30.63
2022-12-04T02:11:32.335Z,29.45
2022-12-04T02:14:27.053Z,29.55
2022-12-04T02:17:23.541Z,30.13
2022-12-04T02:20:28.267Z,27.45
2022-12-04T02:23:38.271Z,26.58
2022-12-04T02:26:38.048Z,28.88
2022-12-04T02:29:38.029Z,26.60
2022-12-04T02:32:30.462Z,25.83
2022-12-04T02:35:22.368Z,25.33
2022-12-04T02:38:17.611Z,24.52
2022-12-04T02:41:12.114Z,25.45
2022-12-04T02:44:03.055Z,25.98
2022-12-04T02:46:57.467Z,23.67
2022-12-04T02:49:48.148Z,27.38
2022-12-04T02:52:39.903Z,29.40
2022-12-04T02:55:31.842Z,29.70
2022-12-04T02:58:24.860Z,30.75
2022-12-04T03:01:23.943Z,27.83
2022-12-04T03:04:17.372Z,26.73
2022-12-04T03:07:10.415Z,26.55
2022-12-04T03:10:01.933Z,30.92
2022-12-04T03:12:54.361Z,33.53
2022-12-04T03:15:44.546Z,32.47
2022-12-04T03:18:37.507Z,27.42
2022-12-04T03:25:47.301Z,27.05
2022-12-04T03:28:39.188Z,25.08
2022-12-04T03:31:33.622Z,27.23
2022-12-04T03:34:28.421Z,27.35
2022-12-04T03:37:19.327Z,26.38
2022-12-04T03:40:12.194Z,35.38
2022-12-04T03:43:04.664Z,34.80
2022-12-04T03:45:56.421Z,32.00
2022-12-04T03:48:47.871Z,32.67
2022-12-04T03:51:37.731Z,27.65
2022-12-04T03:54:29.997Z,29.40
2022-12-04T03:57:21.363Z,25.63
2022-12-04T04:00:13.367Z,24.95
2022-12-04T04:03:07.367Z,26.30
2022-12-04T04:05:59.793Z,25.17
2022-12-04T04:08:51.584Z,25.83
2022-12-04T04:11:45.561Z,26.52
2022-12-04T04:14:53.405Z,23.38
2022-12-04T04:18:05.787Z,24.98
2022-12-04T04:21:16.978Z,27.35
2022-12-04T04:24:18.211Z,24.15
2022-12-04T04:27:06.048Z,25.25
2022-12-04T04:29:53.202Z,24.67
2022-12-04T04:32:46.896Z,24.45
2022-12-04T04:35:42.858Z,25.73
2022-12-04T04:38:33.163Z,25.87
2022-12-04T04:41:26.629Z,24.55
2022-12-04T04:44:20.123Z,26.85
2022-12-04T04:47:12.244Z,28.52
2022-12-04T04:50:04.181Z,29.88
2022-12-04T04:52:52.992Z,33.47
2022-12-04T04:55:40.079Z,34.17
2022-12-04T04:58:27.006Z,33.50
2022-12-04T05:01:15.675Z,33.25
2022-12-04T05:04:02.343Z,32.30
2022-12-04T05:06:50.180Z,35.13
2022-12-04T05:09:41.070Z,33.55
2022-12-04T05:12:28.192Z,31.27
2022-12-04T05:15:15.115Z,34.30
2022-12-04T05:18:01.808Z,34.22
2022-12-04T05:20:48.619Z,33.65
2022-12-04T05:23:36.815Z,37.25
2022-12-04T05:26:23.100Z,38.10
2022-12-04T05:29:09.597Z,38.45
2022-12-04T05:31:56.619Z,35.75
2022-12-04T05:34:44.086Z,37.15
2022-12-04T05:37:30.975Z,36.38
2022-12-04T05:40:18.935Z,37.42
2022-12-04T05:43:05.328Z,37.33
2022-12-04T05:45:52.118Z,37.55
2022-12-04T05:48:38.647Z,37.70
2022-12-04T05:51:25.057Z,36.47
2022-12-04T05:54:11.514Z,36.13
2022-12-04T05:57:00.067Z,38.33
2022-12-04T05:59:46.423Z,36.95
2022-12-04T06:02:35.126Z,35.80
2022-12-04T06:05:21.976Z,32.22
2022-12-04T06:08:08.850Z,34.58
2022-12-04T06:10:55.697Z,36.22
2022-12-04T06:13:45.154Z,37.50
2022-12-04T06:16:34.374Z,32.38
2022-12-04T06:19:23.409Z,33.22
2022-12-04T06:22:10.159Z,32.97
2022-12-04T06:24:56.567Z,35.78
2022-12-04T06:27:44.334Z,32.55
2022-12-04T06:30:32.299Z,36.08
2022-12-04T06:33:18.957Z,33.42
2022-12-04T06:36:07.862Z,34.53
2022-12-04T06:38:56.868Z,35.30
2022-12-04T06:41:43.477Z,35.22
2022-12-04T06:44:30.289Z,33.85
2022-12-04T06:50:05.334Z,31.50
2022-12-04T06:52:51.594Z,30.92
2022-12-04T06:55:38.124Z,35.03
2022-12-04T06:58:25.172Z,33.17
2022-12-04T07:01:14.320Z,35.50
2022-12-04T07:04:04.273Z,34.10
2022-12-04T07:06:50.891Z,32.60
2022-12-04T07:09:37.594Z,34.03
2022-12-04T07:12:24.296Z,33.63
2022-12-04T07:15:11.906Z,33.65
2022-12-04T07:17:58.882Z,34.13
2022-12-04T07:20:47.166Z,35.55
2022-12-04T07:23:33.645Z,32.13
2022-12-04T07:26:21.597Z,33.92
2022-12-04T07:29:08.106Z,32.47
2022-12-04T07:31:55.090Z,33.83
2022-12-04T07:34:42.132Z,34.13
2022-12-04T07:37:30.406Z,33.13
2022-12-04T07:40:17.220Z,35.55
2022-12-04T07:43:03.510Z,36.38
2022-12-04T07:45:50.439Z,36.00
2022-12-04T07:48:37.356Z,36.88
2022-12-04T07:54:13.285Z,34.50
2022-12-04T07:57:00.075Z,35.05
2022-12-04T07:59:46.928Z,31.88
2022-12-04T08:02:33.733Z,32.90
2022-12-04T08:05:20.785Z,33.83
2022-12-04T08:08:07.379Z,34.10
2022-12-04T08:10:55.571Z,32.17
2022-12-04T08:13:42.573Z,30.27
2022-12-04T08:16:32.084Z,33.03
2022-12-04T08:19:18.800Z,33.75
2022-12-04T08:22:05.251Z,33.92
2022-12-04T08:24:52.515Z,32.55
2022-12-04T08:27:47.163Z,34.05
2022-12-04T08:30:34.679Z,33.60
2022-12-04T08:33:21.484Z,31.17
2022-12-04T08:36:09.987Z,33.03
2022-12-04T08:38:57.222Z,33.40
2022-12-04T08:41:44.148Z,30.60
2022-12-04T08:44:32.184Z,32.95
2022-12-04T08:47:19.172Z,30.50
2022-12-04T08:52:53.031Z,30.48
2022-12-04T08:55:39.526Z,29.27
2022-12-04T08:58:26.043Z,29.10
2022-12-04T09:01:15.239Z,30.25
2022-12-04T09:04:02.143Z,27.42
2022-12-04T09:06:48.979Z,27.90
2022-12-04T09:12:22.529Z,26.90
2022-12-04T09:15:10.613Z,28.73
2022-12-04T09:17:59.351Z,26.80
2022-12-04T09:20:46.285Z,27.55
2022-12-04T09:23:34.383Z,25.95
2022-12-04T09:26:23.947Z,25.90
2022-12-04T09:29:12.533Z,27.98
2022-12-04T09:31:59.304Z,26.33
2022-12-04T09:34:51.330Z,25.75
2022-12-04T09:37:39.613Z,25.42
2022-12-04T09:40:37.170Z,26.23
2022-12-04T09:43:32.449Z,27.27
2022-12-04T09:46:22.428Z,26.02
2022-12-04T09:49:15.803Z,26.35
2022-12-04T09:52:10.321Z,23.55
2022-12-04T09:54:58.692Z,24.58
2022-12-04T09:57:49.170Z,25.60
2022-12-04T10:00:39.914Z,24.90
2022-12-04T10:03:29.380Z,24.58
2022-12-04T10:06:20.973Z,24.70
2022-12-04T10:09:17.982Z,24.88
2022-12-04T10:12:14.426Z,25.63
2022-12-04T10:15:22.940Z,25.40
2022-12-04T10:18:22.385Z,24.83
2022-12-04T10:21:36.440Z,24.63
2022-12-04T10:24:36.087Z,21.08
2022-12-04T10:27:27.737Z,18.73
2022-12-04T10:30:20.370Z,18.50
2022-12-04T10:33:17.839Z,18.10
2022-12-04T10:36:06.396Z,19.58
2022-12-04T10:38:56.580Z,18.65
2022-12-04T10:41:52.297Z,20.52
2022-12-04T10:44:40.228Z,19.63
2022-12-04T10:47:27.205Z,17.55
2022-12-04T10:50:17.146Z,18.63
2022-12-04T10:53:03.723Z,18.10
2022-12-04T10:55:50.563Z,17.58
2022-12-04T10:58:38.734Z,17.58
2022-12-04T11:01:25.413Z,16.25
2022-12-04T11:04:22.495Z,16.58
2022-12-04T11:09:59.427Z,16.02
2022-12-04T11:12:55.230Z,16.83
2022-12-04T11:15:46.628Z,17.03
2022-12-04T11:18:35.597Z,15.70
2022-12-04T11:21:27.404Z,15.88
2022-12-04T11:24:21.189Z,17.35
2022-12-04T11:27:16.785Z,16.42
2022-12-04T11:30:09.306Z,16.27
2022-12-04T11:32:57.914Z,16.95
2022-12-04T11:35:52.491Z,15.98
2022-12-04T11:38:39.523Z,15.75
2022-12-04T11:41:28.923Z,20.85
2022-12-04T11:44:26.634Z,19.83
2022-12-04T11:47:19.553Z,19.83
2022-12-04T11:50:15.239Z,19.25
2022-12-04T11:53:11.209Z,19.13
2022-12-04T11:56:10.935Z,20.08
2022-12-04T11:59:12.546Z,18.67
2022-12-04T12:02:16.426Z,19.55
2022-12-04T12:05:53.707Z,19.02
2022-12-04T12:08:55.537Z,17.20
2022-12-04T12:11:47.295Z,21.10
2022-12-04T12:14:42.151Z,20.33
2022-12-04T12:17:38.572Z,19.08
2022-12-04T12:20:33.493Z,19.23
2022-12-04T12:23:37.349Z,20.35
2022-12-04T12:26:31.272Z,19.35
2022-12-04T12:29:34.984Z,20.17
2022-12-04T12:32:46.541Z,21.48
2022-12-04T12:35:39.753Z,19.67
2022-12-04T12:38:32.720Z,20.42
2022-12-04T12:41:23.086Z,19.58
2022-12-04T12:44:15.894Z,19.50
2022-12-04T12:47:09.386Z,20.33
2022-12-04T12:50:01.723Z,20.60
2022-12-04T12:52:56.927Z,20.08
2022-12-04T12:55:49.306Z,19.27
2022-12-04T12:58:41.011Z,22.02
2022-12-04T13:01:39.690Z,20.75
2022-12-04T13:04:36.038Z,21.58
2022-12-04T13:07:29.708Z,20.50
2022-12-04T13:10:20.506Z,20.25
2022-12-04T13:13:13.172Z,19.48
2022-12-04T13:16:05.578Z,18.65
2022-12-04T13:19:00.155Z,20.60
2022-12-04T13:21:52.410Z,21.65
2022-12-04T13:24:57.760Z,20.92
2022-12-04T13:27:54.469Z,19.25
2022-12-04T13:30:51.912Z,20.65
2022-12-04T13:34:13.865Z,20.30
2022-12-04T13:37:15.751Z,19.83
2022-12-04T13:40:30.043Z,20.65
2022-12-04T13:43:21.900Z,22.23
2022-12-04T13:46:26.831Z,23.15
2022-12-04T13:49:26.918Z,21.67
2022-12-04T13:52:25.151Z,22.25
2022-12-04T13:55:28.767Z,22.95
2022-12-04T13:58:28.147Z,22.38
2022-12-04T14:01:27.223Z,23.40
2022-12-04T14:04:25.594Z,23.17
2022-12-04T14:07:25.826Z,22.85
2022-12-04T14:10:28.707Z,23.65
2022-12-04T14:13:20.732Z,22.50
2022-12-04T14:16:17.067Z,22.73
2022-12-04T14:19:07.069Z,24.25
2022-12-04T14:21:54.155Z,22.33
2022-12-04T14:24:41.130Z,22.27
2022-12-04T14:27:34.921Z,23.75
2022-12-04T14:30:24.752Z,23.90
2022-12-04T14:33:20.047Z,23.77
2022-12-04T14:36:12.188Z,21.50
2022-12-04T14:39:06.048Z,23.10
2022-12-04T14:41:56.820Z,23.05
2022-12-04T14:44:48.431Z,22.73
2022-12-04T14:47:44.000Z,23.42
2022-12-04T14:50:40.328Z,23.58
2022-12-04T14:56:33.632Z,23.05
2022-12-04T14:59:22.118Z,23.92
2022-12-04T15:02:14.132Z,22.10
2022-12-04T15:05:02.708Z,21.98
2022-12-04T15:07:51.172Z,24.10
2022-12-04T15:10:57.418Z,24.30
2022-12-04T15:13:44.167Z,24.52
2022-12-04T15:16:31.156Z,22.83
2022-12-04T15:19:21.301Z,24.17
2022-12-04T15:22:14.655Z,24.73
2022-12-04T15:25:01.861Z,23.80
2022-12-04T15:27:54.199Z,22.85
2022-12-04T15:30:44.249Z,24.98
2022-12-04T15:33:36.338Z,24.63
2022-12-04T15:36:41.043Z,26.45
2022-12-04T15:39:29.724Z,23.33
2022-12-04T15:42:20.172Z,25.50
2022-12-04T15:45:31.752Z,23.50
2022-12-04T15:48:29.126Z,24.90
2022-12-04T15:51:17.402Z,27.48
2022-12-04T15:54:05.102Z,26.02
2022-12-04T15:57:00.995Z,26.30
2022-12-04T15:59:51.762Z,25.92
2022-12-04T16:02:42.907Z,25.33
2022-12-04T16:05:35.436Z,28.85
2022-12-04T16:08:25.483Z,23.48
2022-12-04T16:11:33.260Z,24.90
2022-12-04T16:14:20.694Z,24.42
2022-12-04T16:17:07.261Z,29.00
2022-12-04T16:19:56.882Z,23.75
2022-12-04T16:22:44.183Z,25.67
2022-12-04T16:25:31.923Z,25.17
2022-12-04T16:28:18.528Z,24.63
2022-12-04T16:31:05.746Z,24.52
2022-12-04T16:33:52.958Z,25.40
2022-12-04T16:36:41.401Z,25.15
2022-12-04T16:39:28.442Z,24.13
2022-12-04T16:42:17.594Z,24.75
2022-12-04T16:45:04.601Z,26.98
2022-12-04T16:47:51.872Z,25.75
2022-12-04T16:50:38.549Z,24.27
2022-12-04T16:53:26.582Z,25.52
2022-12-04T16:56:13.161Z,26.05
2022-12-04T16:58:59.489Z,25.80
2022-12-04T17:01:49.068Z,28.23
2022-12-04T17:04:36.220Z,26.75
2022-12-04T17:07:22.910Z,27.83
2022-12-04T17:10:12.836Z,27.77
2022-12-04T17:12:59.484Z,28.52
2022-12-04T17:15:47.067Z,27.80
2022-12-04T17:18:34.067Z,27.13
2022-12-04T17:21:21.186Z,25.95
2022-12-04T17:24:08.675Z,28.73
2022-12-04T17:26:58.268Z,28.05
2022-12-04T17:29:45.003Z,26.75
2022-12-04T17:32:34.924Z,27.05
2022-12-04T17:35:21.468Z,28.42
2022-12-04T17:41:01.075Z,26.70
2022-12-04T17:43:49.352Z,26.58
2022-12-04T17:46:36.594Z,29.58
2022-12-04T17:49:23.430Z,27.02
2022-12-04T17:52:10.706Z,29.10
2022-12-04T17:54:58.204Z,27.60
2022-12-04T17:57:45.080Z,27.73
2022-12-04T18:00:33.547Z,28.00
2022-12-04T18:03:20.721Z,29.33
2022-12-04T18:06:18.766Z,27.13
2022-12-04T18:09:06.758Z,27.55
2022-12-04T18:11:53.877Z,25.88
2022-12-04T18:14:40.776Z,26.30
2022-12-04T18:17:29.043Z,30.77
2022-12-04T18:20:15.942Z,28.05
2022-12-04T18:23:02.918Z,29.92
2022-12-04T18:25:56.050Z,29.63
2022-12-04T18:28:43.839Z,31.73
2022-12-04T18:31:30.616Z,30.90
2022-12-04T18:34:19.444Z,31.58
2022-12-04T18:37:06.392Z,31.45
2022-12-04T18:42:39.768Z,30.63
2022-12-04T18:45:26.636Z,32.17
2022-12-04T18:48:15.417Z,33.95
2022-12-04T18:51:14.036Z,33.85
2022-12-04T18:54:02.634Z,33.40
2022-12-04T18:56:50.058Z,34.58
2022-12-04T18:59:38.586Z,34.72
2022-12-04T19:02:25.442Z,32.05
2022-12-04T19:05:12.289Z,31.63
2022-12-04T19:08:00.593Z,32.42
2022-12-04T19:10:47.411Z,30.08
2022-12-04T19:13:33.945Z,33.58
2022-12-04T19:16:20.626Z,33.20
2022-12-04T19:19:09.002Z,32.10
2022-12-04T19:21:56.076Z,33.15
2022-12-04T19:24:44.268Z,31.73
2022-12-04T19:27:31.479Z,34.25
2022-12-04T19:30:18.120Z,32.75
2022-12-04T19:33:05.097Z,32.05
2022-12-04T19:35:58.358Z,29.77
2022-12-04T19:38:45.657Z,32.05
2022-12-04T19:41:35.246Z,32.35
2022-12-04T19:50:15.845Z,31.02
2022-12-04T19:53:03.034Z,29.02
2022-12-04T19:55:50.226Z,30.20
2022-12-04T19:58:39.053Z,27.95
2022-12-04T20:01:28.720Z,28.77
2022-12-04T20:04:15.597Z,29.50
2022-12-04T20:07:02.297Z,27.30
2022-12-04T20:09:52.422Z,27.08
2022-12-04T20:12:39.761Z,28.88
2022-12-04T20:15:27.979Z,27.13
2022-12-04T20:18:14.477Z,28.00
2022-12-04T20:21:02.539Z,28.48
2022-12-04T20:23:51.545Z,28.90
2022-12-04T20:26:40.269Z,28.05
2022-12-04T20:29:27.023Z,28.17
2022-12-04T20:32:15.597Z,25.95
2022-12-04T20:35:02.106Z,28.38
2022-12-04T20:37:48.899Z,27.25
2022-12-04T20:40:36.054Z,27.60
2022-12-04T20:43:22.732Z,27.10
2022-12-04T20:49:03.614Z,26.65
2022-12-04T20:51:51.381Z,27.92
2022-12-04T20:54:41.600Z,28.17
2022-12-04T20:57:31.167Z,27.80
2022-12-04T21:00:18.174Z,27.98
2022-12-04T21:03:05.015Z,27.02
2022-12-04T21:05:53.174Z,27.27
2022-12-04T21:08:56.555Z,27.88
2022-12-04T21:11:45.556Z,30.80
2022-12-04T21:14:51.640Z,31.27
2022-12-04T21:17:38.307Z,28.38
2022-12-04T21:20:25.231Z,26.95
2022-12-04T21:23:13.136Z,26.67
2022-12-04T21:25:59.891Z,29.10
2022-12-04T21:28:46.821Z,28.80
2022-12-04T21:31:33.666Z,27.65
2022-12-04T21:34:20.423Z,29.77
2022-12-04T21:37:06.820Z,28.65
2022-12-04T21:39:55.530Z,28.90
2022-12-04T21:42:44.035Z,28.20
2022-12-04T21:45:30.756Z,28.83
2022-12-04T21:48:17.702Z,28.15
2022-12-04T21:51:16.885Z,27.08
2022-12-04T21:54:14.198Z,27.77
2022-12-04T21:57:01.990Z,29.33
2022-12-04T21:59:48.753Z,28.17
2022-12-04T22:02:36.258Z,28.90
2022-12-04T22:05:23.632Z,27.75
2022-12-04T22:08:11.724Z,29.50
2022-12-04T22:10:59.122Z,29.73
2022-12-04T22:13:47.319Z,28.83
2022-12-04T22:16:39.898Z,29.83
2022-12-04T22:19:28.679Z,29.70
2022-12-04T22:22:15.595Z,27.65
2022-12-04T22:27:48.655Z,30.30
2022-12-04T22:30:37.218Z,30.27
2022-12-04T22:33:23.705Z,29.40
2022-12-04T22:36:12.846Z,31.25
2022-12-04T22:39:09.342Z,31.48
2022-12-04T22:41:57.008Z,29.63
2022-12-04T22:44:43.849Z,27.67
2022-12-04T22:47:31.979Z,30.35
2022-12-04T22:50:19.231Z,29.33
2022-12-04T22:53:05.705Z,26.85
2022-12-04T22:55:52.293Z,29.20
2022-12-04T22:58:39.289Z,29.77
2022-12-04T23:01:27.393Z,28.63
2022-12-04T23:04:15.621Z,30.42
2022-12-04T23:07:02.103Z,28.88
2022-12-04T23:09:48.796Z,27.17
2022-12-04T23:12:35.964Z,29.58
2022-12-04T23:15:22.938Z,29.40
2022-12-04T23:18:09.421Z,27.50
2022-12-04T23:23:50.174Z,26.95
2022-12-04T23:26:39.254Z,28.23
2022-12-04T23:32:32.604Z,25.85
2022-12-04T23:35:19.667Z,28.13
2022-12-04T23:38:07.656Z,28.77
2022-12-04T23:41:01.988Z,27.27
2022-12-04T23:43:50.350Z,28.88
2022-12-04T23:46:37.088Z,26.92
2022-12-04T23:49:23.953Z,28.80
2022-12-04T23:52:10.844Z,28.05
2022-12-04T23:54:59.356Z,29.33
2022-12-04T23:57:45.950Z,28.00
